createdAt,value
2022-11-05T00:00:19.940Z,80.80
2022-11-05T00:03:05.635Z,80.70
2022-11-05T00:05:50.972Z,80.70
2022-11-05T00:08:36.755Z,80.80
2022-11-05T00:11:03.621Z,80.70
2022-11-05T00:13:49.397Z,80.70
2022-11-05T00:16:35.018Z,80.70
2022-11-05T00:19:10.428Z,80.60
2022-11-05T00:21:57.462Z,80.60
2022-11-05T00:24:43.373Z,80.70
2022-11-05T00:27:10.617Z,80.70
2022-11-05T00:29:37.574Z,80.70
2022-11-05T00:32:04.695Z,80.50
2022-11-05T00:34:33.123Z,80.70
2022-11-05T00:37:00.015Z,80.60
2022-11-05T00:39:26.909Z,80.70
2022-11-05T00:42:12.373Z,80.60
2022-11-05T00:44:57.914Z,80.60
2022-11-05T00:47:43.642Z,80.70
2022-11-05T00:50:11.030Z,80.80
2022-11-05T00:52:57.073Z,80.70
2022-11-05T00:55:28.456Z,80.90
2022-11-05T00:57:56.301Z,80.80
2022-11-05T01:00:25.003Z,80.80
2022-11-05T01:02:52.052Z,80.80
2022-11-05T01:05:19.546Z,80.90
2022-11-05T01:07:46.509Z,81.00
2022-11-05T01:10:13.428Z,81.00
2022-11-05T01:12:40.361Z,80.90
2022-11-05T01:15:07.770Z,80.90
2022-11-05T01:17:34.687Z,80.90
2022-11-05T01:20:01.686Z,80.80
2022-11-05T01:22:28.577Z,80.80
2022-11-05T01:24:55.517Z,80.70
2022-11-05T01:27:22.622Z,80.70
2022-11-05T01:29:49.508Z,80.90
2022-11-05T01:32:16.457Z,80.80
2022-11-05T01:34:43.358Z,80.80
2022-11-05T01:37:10.271Z,80.80
2022-11-05T01:39:37.170Z,80.80
2022-11-05T01:42:05.585Z,80.80
2022-11-05T01:45:05.262Z,80.80
2022-11-05T01:47:41.865Z,81.00
2022-11-05T01:50:27.553Z,80.90
2022-11-05T01:53:02.716Z,80.80
2022-11-05T01:55:34.112Z,80.90
2022-11-05T01:58:03.378Z,81.00
2022-11-05T02:00:31.199Z,80.90
2022-11-05T02:02:58.508Z,80.70
2022-11-05T02:05:25.761Z,80.90
2022-11-05T02:07:53.699Z,80.90
2022-11-05T02:10:21.574Z,80.90
2022-11-05T02:12:48.677Z,80.90
2022-11-05T02:15:27.477Z,80.90
2022-11-05T02:18:13.085Z,80.80
2022-11-05T02:21:24.743Z,80.70
2022-11-05T02:24:24.391Z,80.90
2022-11-05T02:27:12.958Z,80.90
2022-11-05T02:30:09.759Z,80.90
2022-11-05T02:33:14.439Z,80.90
2022-11-05T02:36:04.632Z,80.90
2022-11-05T02:39:05.287Z,80.90
2022-11-05T02:42:04.655Z,80.90
2022-11-05T02:45:06.242Z,80.90
2022-11-05T02:47:44.385Z,80.80
2022-11-05T02:50:45.378Z,80.80
2022-11-05T02:53:36.980Z,80.70
2022-11-05T02:56:11.258Z,80.70
2022-11-05T02:58:38.168Z,80.60
2022-11-05T03:01:07.156Z,80.60
2022-11-05T03:03:43.126Z,80.60
2022-11-05T03:06:22.165Z,80.60
2022-11-05T03:09:10.161Z,80.60
2022-11-05T03:11:45.805Z,80.60
2022-11-05T03:14:12.488Z,80.60
2022-11-05T03:16:42.187Z,80.50
2022-11-05T03:19:59.386Z,80.50
2022-11-05T03:22:36.206Z,80.50
2022-11-05T03:25:08.698Z,80.50
2022-11-05T03:27:39.420Z,80.50
2022-11-05T03:30:10.482Z,80.40
2022-11-05T03:32:44.217Z,80.50
2022-11-05T03:35:25.644Z,80.50
2022-11-05T03:37:58.270Z,80.50
2022-11-05T03:40:26.373Z,80.40
2022-11-05T03:42:57.032Z,80.40
2022-11-05T03:45:32.283Z,80.50
2022-11-05T03:48:01.485Z,80.60
2022-11-05T03:50:49.797Z,80.50
2022-11-05T03:53:23.069Z,80.50
2022-11-05T03:55:57.304Z,80.40
2022-11-05T03:58:24.920Z,81.10
2022-11-05T04:00:52.162Z,80.50
2022-11-05T04:03:19.102Z,80.30
2022-11-05T04:06:06.411Z,80.40
2022-11-05T04:08:51.618Z,80.30
2022-11-05T04:11:41.431Z,80.30
2022-11-05T04:14:08.342Z,80.30
2022-11-05T04:16:53.599Z,80.30
2022-11-05T04:19:40.382Z,80.30
2022-11-05T04:22:25.775Z,80.30
2022-11-05T04:24:52.625Z,80.20
2022-11-05T04:27:19.508Z,80.20
2022-11-05T04:30:04.796Z,80.20
2022-11-05T04:32:31.679Z,80.20
2022-11-05T04:34:58.589Z,80.20
2022-11-05T04:37:25.574Z,80.30
2022-11-05T04:39:52.422Z,80.30
2022-11-05T04:42:19.317Z,80.20
2022-11-05T04:44:46.138Z,80.20
2022-11-05T04:47:13.024Z,80.20
2022-11-05T04:49:39.847Z,80.20
2022-11-05T04:52:06.706Z,80.20
2022-11-05T04:54:33.614Z,80.20
2022-11-05T04:57:00.458Z,80.10
2022-11-05T04:59:27.358Z,80.10
2022-11-05T05:01:54.312Z,80.20
2022-11-05T05:04:21.143Z,80.20
2022-11-05T05:06:48.068Z,80.10
2022-11-05T05:09:15.044Z,80.10
2022-11-05T05:11:41.923Z,80.10
2022-11-05T05:14:09.053Z,80.10
2022-11-05T05:16:36.191Z,80.10
2022-11-05T05:19:03.082Z,80.10
2022-11-05T05:21:39.097Z,80.10
2022-11-05T05:24:09.388Z,80.10
2022-11-05T05:26:38.148Z,80.10
2022-11-05T05:29:06.281Z,80.00
2022-11-05T05:31:33.921Z,80.10
2022-11-05T05:34:00.841Z,80.60
2022-11-05T05:36:27.726Z,80.00
2022-11-05T05:38:54.651Z,80.00
2022-11-05T05:41:21.861Z,80.10
2022-11-05T05:43:48.739Z,80.00
2022-11-05T05:46:17.697Z,80.00
2022-11-05T05:48:49.345Z,79.90
2022-11-05T05:51:16.269Z,80.00
2022-11-05T05:53:43.084Z,80.00
2022-11-05T05:56:10.527Z,79.90
2022-11-05T05:58:38.989Z,79.90
2022-11-05T06:01:11.898Z,79.90
2022-11-05T06:03:42.557Z,79.90
2022-11-05T06:06:13.079Z,80.00
2022-11-05T06:08:40.803Z,80.00
2022-11-05T06:11:08.647Z,80.00
2022-11-05T06:13:36.806Z,80.00
2022-11-05T06:16:06.232Z,79.90
2022-11-05T06:18:33.821Z,79.80
2022-11-05T06:21:10.142Z,79.90
2022-11-05T06:23:38.963Z,79.80
2022-11-05T06:26:08.194Z,79.80
2022-11-05T06:28:35.750Z,79.80
2022-11-05T06:31:02.645Z,79.80
2022-11-05T06:33:30.156Z,79.90
2022-11-05T06:36:01.242Z,79.90
2022-11-05T06:38:29.470Z,79.90
2022-11-05T06:40:59.452Z,80.00
2022-11-05T06:43:27.294Z,80.10
2022-11-05T06:45:54.989Z,80.10
2022-11-05T06:48:22.394Z,80.20
2022-11-05T06:50:49.290Z,80.20
2022-11-05T06:53:16.278Z,80.30
2022-11-05T06:55:44.955Z,80.30
2022-11-05T06:58:11.885Z,80.30
2022-11-05T07:00:38.853Z,80.40
2022-11-05T07:03:10.857Z,80.40
2022-11-05T07:05:42.290Z,80.50
2022-11-05T07:08:09.181Z,80.50
2022-11-05T07:10:36.050Z,80.50
2022-11-05T07:13:07.848Z,80.60
2022-11-05T07:15:35.988Z,80.60
2022-11-05T07:18:03.598Z,80.60
2022-11-05T07:20:33.998Z,80.70
2022-11-05T07:23:11.117Z,80.70
2022-11-05T07:25:38.844Z,80.70
2022-11-05T07:28:06.301Z,80.70
2022-11-05T07:30:34.390Z,80.70
2022-11-05T07:33:01.888Z,80.90
2022-11-05T07:35:28.938Z,80.80
2022-11-05T07:37:56.192Z,80.00
2022-11-05T07:40:25.297Z,79.60
2022-11-05T07:42:55.146Z,79.70
2022-11-05T07:45:22.288Z,79.20
2022-11-05T07:47:57.667Z,79.30
2022-11-05T07:50:26.615Z,79.40
2022-11-05T07:52:53.608Z,79.40
2022-11-05T07:55:20.668Z,79.30
2022-11-05T07:57:50.428Z,79.20
2022-11-05T08:00:22.903Z,79.10
2022-11-05T08:03:07.783Z,79.20
2022-11-05T08:05:37.449Z,79.10
2022-11-05T08:08:05.691Z,79.20
2022-11-05T08:10:34.117Z,79.30
2022-11-05T08:13:01.645Z,79.30
2022-11-05T08:15:29.196Z,79.20
2022-11-05T08:18:08.491Z,79.20
2022-11-05T08:20:36.349Z,79.20
2022-11-05T08:23:03.209Z,79.20
2022-11-05T08:25:31.483Z,79.10
2022-11-05T08:28:04.320Z,79.00
2022-11-05T08:30:32.528Z,79.00
2022-11-05T08:33:01.908Z,79.00
2022-11-05T08:35:29.460Z,79.00
2022-11-05T08:38:02.715Z,78.90
2022-11-05T08:40:31.116Z,79.20
2022-11-05T08:42:59.067Z,79.40
2022-11-05T08:45:27.218Z,79.40
2022-11-05T08:48:06.403Z,79.40
2022-11-05T08:50:34.254Z,79.40
2022-11-05T08:53:01.251Z,79.50
2022-11-05T08:55:28.294Z,79.50
2022-11-05T08:57:59.851Z,79.50
2022-11-05T09:00:29.089Z,79.50
2022-11-05T09:02:58.242Z,79.40
2022-11-05T09:05:25.109Z,79.30
2022-11-05T09:07:55.274Z,79.30
2022-11-05T09:10:26.819Z,79.20
2022-11-05T09:12:53.664Z,79.30
2022-11-05T09:15:20.573Z,79.30
2022-11-05T09:17:47.342Z,79.20
2022-11-05T09:20:14.289Z,79.30
2022-11-05T09:22:43.478Z,79.00
2022-11-05T09:25:10.648Z,78.50
2022-11-05T09:27:37.452Z,78.10
2022-11-05T09:30:05.482Z,78.00
2022-11-05T09:32:33.093Z,78.10
2022-11-05T09:35:01.343Z,78.70
2022-11-05T09:37:29.044Z,78.00
2022-11-05T09:39:55.876Z,78.00
2022-11-05T09:42:29.552Z,78.10
2022-11-05T09:45:01.453Z,78.10
2022-11-05T09:47:35.050Z,78.10
2022-11-05T09:50:07.699Z,78.10
2022-11-05T09:52:35.032Z,78.00
2022-11-05T09:55:04.483Z,78.00
2022-11-05T09:57:52.353Z,78.00
2022-11-05T10:00:19.567Z,77.90
2022-11-05T10:03:01.337Z,77.90
2022-11-05T10:05:28.825Z,78.00
2022-11-05T10:08:19.564Z,78.10
2022-11-05T10:10:51.131Z,78.00
2022-11-05T10:13:41.169Z,77.80
2022-11-05T10:16:39.164Z,77.70
2022-11-05T10:19:13.193Z,77.90
2022-11-05T10:24:28.310Z,77.80
2022-11-05T10:26:56.276Z,78.00
2022-11-05T10:29:30.800Z,78.00
2022-11-05T10:32:00.058Z,78.10
2022-11-05T10:34:32.144Z,78.10
2022-11-05T10:36:59.322Z,78.10
2022-11-05T10:39:29.714Z,78.40
2022-11-05T10:42:05.396Z,78.40
2022-11-05T10:44:36.194Z,78.50
2022-11-05T10:47:25.479Z,78.50
2022-11-05T10:49:59.628Z,78.40
2022-11-05T10:52:34.318Z,78.20
2022-11-05T10:55:04.392Z,78.00
2022-11-05T10:57:40.058Z,77.00
2022-11-05T11:00:19.097Z,76.80
2022-11-05T11:02:55.129Z,76.60
2022-11-05T11:05:28.909Z,76.20
2022-11-05T11:08:15.714Z,76.00
2022-11-05T11:10:49.575Z,76.10
2022-11-05T11:13:25.193Z,76.50
2022-11-05T11:15:52.376Z,76.60
2022-11-05T11:18:36.005Z,77.00
2022-11-05T11:21:19.740Z,77.10
2022-11-05T11:24:04.866Z,77.10
2022-11-05T11:26:35.507Z,77.20
2022-11-05T11:29:07.571Z,77.30
2022-11-05T11:31:38.928Z,77.30
2022-11-05T11:34:20.014Z,77.40
2022-11-05T11:36:50.356Z,77.50
2022-11-05T11:39:21.702Z,77.60
2022-11-05T11:41:56.181Z,77.60
2022-11-05T11:44:29.834Z,77.70
2022-11-05T11:47:09.321Z,78.40
2022-11-05T11:49:45.583Z,77.90
2022-11-05T11:52:19.509Z,77.90
2022-11-05T11:54:46.327Z,78.10
2022-11-05T11:57:29.602Z,78.20
2022-11-05T12:00:14.654Z,78.20
2022-11-05T12:03:02.014Z,78.30
2022-11-05T12:05:51.221Z,78.90
2022-11-05T12:09:02.047Z,78.30
2022-11-05T12:11:50.776Z,78.30
2022-11-05T12:14:33.017Z,78.40
2022-11-05T12:17:22.709Z,78.40
2022-11-05T12:20:09.846Z,78.40
2022-11-05T12:22:42.689Z,78.50
2022-11-05T12:25:12.656Z,78.60
2022-11-05T12:28:10.597Z,78.50
2022-11-05T12:30:46.794Z,78.60
2022-11-05T12:33:17.171Z,78.50
2022-11-05T12:35:57.578Z,78.50
2022-11-05T12:38:46.667Z,78.60
2022-11-05T12:41:28.063Z,78.60
2022-11-05T12:44:17.863Z,78.60
2022-11-05T12:47:05.204Z,78.60
2022-11-05T12:49:41.873Z,78.60
2022-11-05T12:52:45.541Z,78.60
2022-11-05T12:55:24.354Z,78.60
2022-11-05T12:58:08.133Z,78.60
2022-11-05T13:00:36.153Z,78.60
2022-11-05T13:03:22.150Z,78.60
2022-11-05T13:05:55.188Z,78.60
2022-11-05T13:08:42.996Z,78.50
2022-11-05T13:11:31.854Z,78.50
2022-11-05T13:14:02.553Z,78.50
2022-11-05T13:16:35.014Z,78.60
2022-11-05T13:19:20.638Z,78.50
2022-11-05T13:22:13.100Z,78.60
2022-11-05T13:24:50.176Z,78.60
2022-11-05T13:27:42.778Z,78.60
2022-11-05T13:30:16.823Z,78.60
2022-11-05T13:32:49.173Z,78.60
2022-11-05T13:35:34.876Z,78.60
2022-11-05T13:38:25.121Z,78.60
2022-11-05T13:41:22.352Z,78.70
2022-11-05T13:44:36.811Z,78.70
2022-11-05T13:47:09.451Z,78.70
2022-11-05T13:49:54.809Z,78.70
2022-11-05T13:52:45.111Z,78.80
2022-11-05T13:55:30.712Z,78.80
2022-11-05T13:58:16.208Z,78.80
2022-11-05T14:01:09.428Z,79.40
2022-11-05T14:03:37.123Z,78.90
2022-11-05T14:06:06.781Z,78.90
2022-11-05T14:08:44.871Z,79.00
2022-11-05T14:11:37.516Z,78.80
2022-11-05T14:14:08.250Z,78.70
2022-11-05T14:17:06.987Z,78.70
2022-11-05T14:19:52.053Z,78.70
2022-11-05T14:22:34.140Z,78.60
2022-11-05T14:25:02.851Z,78.60
2022-11-05T14:27:29.582Z,78.60
2022-11-05T14:29:56.444Z,78.70
2022-11-05T14:32:27.749Z,78.80
2022-11-05T14:34:56.990Z,78.80
2022-11-05T14:37:27.752Z,78.60
2022-11-05T14:39:55.843Z,78.50
2022-11-05T14:42:26.628Z,78.80
2022-11-05T14:44:58.993Z,78.80
2022-11-05T14:47:32.669Z,78.70
2022-11-05T14:50:11.681Z,78.80
2022-11-05T14:52:40.173Z,78.90
2022-11-05T14:55:23.406Z,78.90
2022-11-05T14:57:52.971Z,78.80
2022-11-05T15:00:28.705Z,78.90
2022-11-05T15:02:59.642Z,78.70
2022-11-05T15:05:36.125Z,78.80
2022-11-05T15:08:32.719Z,78.80
2022-11-05T15:11:07.379Z,78.80
2022-11-05T15:13:40.726Z,78.80
2022-11-05T15:16:07.953Z,78.90
2022-11-05T15:18:44.126Z,78.90
2022-11-05T15:21:16.697Z,78.90
2022-11-05T15:23:46.135Z,78.90
2022-11-05T15:26:30.761Z,79.00
2022-11-05T15:28:57.675Z,79.00
2022-11-05T15:31:25.000Z,79.00
2022-11-05T15:34:07.415Z,79.00
2022-11-05T15:36:34.358Z,79.00
2022-11-05T15:39:29.096Z,79.00
2022-11-05T15:41:48.098Z,79.10
2022-11-05T15:44:29.866Z,79.10
2022-11-05T15:47:12.024Z,79.10
2022-11-05T15:49:39.201Z,79.10
2022-11-05T15:52:09.148Z,79.20
2022-11-05T15:54:36.255Z,79.20
2022-11-05T15:57:03.787Z,79.10
2022-11-05T15:59:31.074Z,79.20
2022-11-05T16:02:05.960Z,79.20
2022-11-05T16:04:34.929Z,79.30
2022-11-05T16:07:10.925Z,79.30
2022-11-05T16:09:41.084Z,79.30
2022-11-05T16:12:18.290Z,79.30
2022-11-05T16:14:56.188Z,79.30
2022-11-05T16:17:25.557Z,79.40
2022-11-05T16:19:54.258Z,79.40
2022-11-05T16:22:21.164Z,79.40
2022-11-05T16:24:48.697Z,79.50
2022-11-05T16:27:21.045Z,79.50
2022-11-05T16:29:56.661Z,79.40
2022-11-05T16:32:30.186Z,79.40
2022-11-05T16:35:00.011Z,79.40
2022-11-05T16:37:28.191Z,79.50
2022-11-05T16:39:55.987Z,79.50
2022-11-05T16:42:22.843Z,79.50
2022-11-05T16:44:50.761Z,79.50
2022-11-05T16:47:18.713Z,79.60
2022-11-05T16:49:47.203Z,79.50
2022-11-05T16:52:15.076Z,79.50
2022-11-05T16:54:42.313Z,79.50
2022-11-05T16:57:29.881Z,79.50
2022-11-05T16:59:59.107Z,79.60
2022-11-05T17:02:26.554Z,79.60
2022-11-05T17:04:53.909Z,79.60
2022-11-05T17:07:20.783Z,79.60
2022-11-05T17:09:47.696Z,79.60
2022-11-05T17:12:15.133Z,79.60
2022-11-05T17:14:42.112Z,79.60
2022-11-05T17:17:10.251Z,79.60
2022-11-05T17:19:42.323Z,79.60
2022-11-05T17:22:09.433Z,79.60
2022-11-05T17:24:36.501Z,79.60
2022-11-05T17:27:03.449Z,79.50
2022-11-05T17:29:30.299Z,79.50
2022-11-05T17:31:57.151Z,79.60
2022-11-05T17:34:24.015Z,79.50
2022-11-05T17:36:50.845Z,79.50
2022-11-05T17:39:17.807Z,79.50
2022-11-05T17:41:44.742Z,79.50
2022-11-05T17:44:12.833Z,79.50
2022-11-05T17:46:39.760Z,79.50
2022-11-05T17:49:06.706Z,79.60
2022-11-05T17:51:34.717Z,79.60
2022-11-05T17:54:01.620Z,79.60
2022-11-05T17:56:34.460Z,79.60
2022-11-05T17:59:03.688Z,79.60
2022-11-05T18:01:33.120Z,78.80
2022-11-05T18:04:07.196Z,77.90
2022-11-05T18:06:39.757Z,77.60
2022-11-05T18:09:08.590Z,77.60
2022-11-05T18:11:37.055Z,77.60
2022-11-05T18:14:04.315Z,78.10
2022-11-05T18:16:31.300Z,78.00
2022-11-05T18:18:58.505Z,77.80
2022-11-05T18:21:25.649Z,77.80
2022-11-05T18:23:52.606Z,78.00
2022-11-05T18:26:19.860Z,78.00
2022-11-05T18:28:46.823Z,78.10
2022-11-05T18:31:18.267Z,78.10
2022-11-05T18:33:45.512Z,78.10
2022-11-05T18:36:20.394Z,77.90
2022-11-05T18:38:48.423Z,77.90
2022-11-05T18:41:16.180Z,77.90
2022-11-05T18:43:43.292Z,77.80
2022-11-05T18:46:23.842Z,77.80
2022-11-05T18:48:58.778Z,77.60
2022-11-05T18:51:26.277Z,77.50
2022-11-05T18:53:54.614Z,77.60
2022-11-05T18:56:21.719Z,77.60
2022-11-05T18:58:49.208Z,77.50
2022-11-05T19:01:19.464Z,77.40
2022-11-05T19:03:47.156Z,77.40
2022-11-05T19:06:15.075Z,77.40
2022-11-05T19:08:42.013Z,77.40
2022-11-05T19:11:11.860Z,77.40
2022-11-05T19:13:39.406Z,77.20
2022-11-05T19:16:11.498Z,77.00
2022-11-05T19:18:38.661Z,76.90
2022-11-05T19:21:26.244Z,76.90
2022-11-05T19:23:53.915Z,76.70
2022-11-05T19:26:28.354Z,76.70
2022-11-05T19:28:58.837Z,76.70
2022-11-05T19:31:26.541Z,76.70
2022-11-05T19:33:54.266Z,76.70
2022-11-05T19:36:23.404Z,76.50
2022-11-05T19:38:58.324Z,76.40
2022-11-05T19:41:26.106Z,76.50
2022-11-05T19:43:58.138Z,76.40
2022-11-05T19:46:25.797Z,76.20
2022-11-05T19:48:53.319Z,76.30
2022-11-05T19:51:31.558Z,76.50
2022-11-05T19:54:01.021Z,76.50
2022-11-05T19:56:30.488Z,76.70
2022-11-05T19:58:57.999Z,76.70
2022-11-05T20:01:27.085Z,76.90
2022-11-05T20:03:58.927Z,77.90
2022-11-05T20:06:30.867Z,77.50
2022-11-05T20:09:20.638Z,77.80
2022-11-05T20:11:46.290Z,77.70
2022-11-05T20:14:13.225Z,77.80
2022-11-05T20:16:41.373Z,77.80
2022-11-05T20:19:12.114Z,77.90
2022-11-05T20:21:39.550Z,77.90
2022-11-05T20:24:07.079Z,77.90
2022-11-05T20:26:34.399Z,77.90
2022-11-05T20:29:01.454Z,78.00
2022-11-05T20:31:28.247Z,78.00
2022-11-05T20:33:55.278Z,78.00
2022-11-05T20:36:23.793Z,78.10
2022-11-05T20:38:53.007Z,78.20
2022-11-05T20:41:19.964Z,78.30
2022-11-05T20:43:49.360Z,78.30
2022-11-05T20:46:19.559Z,78.40
2022-11-05T20:48:46.658Z,78.50
2022-11-05T20:51:16.384Z,78.50
2022-11-05T20:53:43.748Z,79.20
2022-11-05T20:56:25.276Z,78.60
2022-11-05T20:58:53.014Z,78.60
2022-11-05T21:01:20.703Z,78.70
2022-11-05T21:03:48.174Z,78.70
2022-11-05T21:06:15.962Z,78.70
2022-11-05T21:08:43.898Z,78.70
2022-11-05T21:11:11.176Z,78.60
2022-11-05T21:13:38.715Z,78.70
2022-11-05T21:16:07.608Z,78.70
2022-11-05T21:18:37.975Z,78.70
2022-11-05T21:21:11.285Z,78.70
2022-11-05T21:23:38.088Z,78.60
2022-11-05T21:26:10.917Z,78.70
2022-11-05T21:28:39.575Z,78.60
2022-11-05T21:31:07.521Z,78.70
2022-11-05T21:33:34.835Z,78.70
2022-11-05T21:36:07.194Z,78.60
2022-11-05T21:38:34.055Z,78.70
2022-11-05T21:41:03.020Z,78.60
2022-11-05T21:43:29.912Z,78.70
2022-11-05T21:46:00.233Z,78.70
2022-11-05T21:48:27.127Z,78.70
2022-11-05T21:51:12.308Z,78.60
2022-11-05T21:53:58.272Z,78.70
2022-11-05T21:56:45.282Z,78.70
2022-11-05T21:59:32.685Z,78.70
2022-11-05T22:02:03.094Z,78.60
2022-11-05T22:04:36.872Z,78.70
2022-11-05T22:07:04.487Z,78.70
2022-11-05T22:09:31.826Z,78.60
2022-11-05T22:11:59.677Z,78.70
2022-11-05T22:14:26.728Z,78.80
2022-11-05T22:16:53.648Z,78.70
2022-11-05T22:19:21.401Z,78.80
2022-11-05T22:23:14.161Z,78.90
2022-11-05T22:25:41.078Z,79.20
2022-11-05T22:28:07.880Z,79.30
2022-11-05T22:30:36.372Z,79.50
2022-11-05T22:33:03.290Z,79.50
2022-11-05T22:35:30.202Z,79.70
2022-11-05T22:37:57.028Z,79.50
2022-11-05T22:40:24.258Z,79.50
2022-11-05T22:42:51.188Z,79.50
2022-11-05T22:45:18.432Z,79.50
2022-11-05T22:47:45.270Z,79.40
2022-11-05T22:50:12.101Z,79.50
2022-11-05T22:52:38.895Z,79.50
2022-11-05T22:55:06.363Z,79.50
2022-11-05T22:57:33.212Z,79.60
2022-11-05T23:00:00.565Z,79.60
2022-11-05T23:02:27.479Z,79.60
2022-11-05T23:04:54.465Z,79.60
2022-11-05T23:07:40.061Z,79.60
2022-11-05T23:10:26.449Z,79.70
2022-11-05T23:12:55.367Z,79.60
2022-11-05T23:15:41.413Z,79.50
2022-11-05T23:18:28.336Z,79.60
2022-11-05T23:21:13.763Z,79.60
2022-11-05T23:23:59.082Z,79.50
2022-11-05T23:26:44.385Z,79.70
2022-11-05T23:29:11.199Z,79.70
2022-11-05T23:31:56.631Z,79.70
2022-11-05T23:34:23.468Z,79.70
2022-11-05T23:37:08.777Z,79.70
2022-11-05T23:39:41.274Z,79.80
2022-11-05T23:42:28.428Z,79.70
2022-11-05T23:45:14.857Z,79.80
2022-11-05T23:48:01.234Z,79.70
2022-11-05T23:50:29.633Z,79.70
2022-11-05T23:52:56.659Z,79.70
2022-11-05T23:55:24.544Z,79.80
2022-11-05T23:57:51.737Z,79.80
